Time;durP1;ratioP1;P1;durP2;ratioP2;P2;SDS_P1;SDS_P2;PMS_P1;PMS_P2;Temp;Humidity;BMP_temperature;BMP_pressure;BME280_temperature;BME280_humidity;BME280_pressure;Samples;Min_cycle;Max_cycle;Signal;HPM_P1;HPM_P2
2020/12/19 00:00:01;;;;;;;51.53;27.55;;;;;;;0.97;84.40;101820.78;1735838;82;21190;-88
2020/12/19 00:02:27;;;;;;;56.75;27.95;;;;;;;0.98;84.39;101821.66;1727363;82;21206;-88
2020/12/19 00:04:53;;;;;;;53.30;26.20;;;;;;;0.97;84.44;101820.78;1745234;82;21766;-88
2020/12/19 00:07:19;;;;;;;53.20;26.07;;;;;;;0.96;84.37;101815.22;1745402;82;21644;-88
2020/12/19 00:09:46;;;;;;;52.40;26.85;;;;;;;0.97;84.32;101811.00;1740276;80;21114;-88
2020/12/19 00:12:12;;;;;;;55.10;27.50;;;;;;;0.96;84.32;101815.63;1741165;81;21169;-88
2020/12/19 00:14:38;;;;;;;53.98;27.10;;;;;;;0.94;84.33;101811.73;1743258;81;21179;-88
2020/12/19 00:17:05;;;;;;;43.23;20.08;;;;;;;0.93;84.37;101818.91;1726400;80;22184;-87
2020/12/19 00:19:31;;;;;;;48.50;25.90;;;;;;;0.91;84.34;101808.20;1741565;82;21202;-88
2020/12/19 00:21:57;;;;;;;47.83;24.40;;;;;;;0.90;84.34;101811.55;1727443;82;21206;-88
2020/12/19 00:24:24;;;;;;;53.25;25.70;;;;;;;0.88;84.30;101818.25;1739533;81;21175;-88
2020/12/19 00:26:50;;;;;;;53.38;27.40;;;;;;;0.85;84.33;101818.12;1740257;82;21185;-88
2020/12/19 00:29:16;;;;;;;60.17;28.90;;;;;;;0.86;84.34;101816.04;1743326;82;21198;-88
2020/12/19 00:31:42;;;;;;;67.85;29.95;;;;;;;0.85;84.38;101816.44;1739754;82;21206;-88
2020/12/19 00:34:10;;;;;;;64.53;30.12;;;;;;;0.85;84.38;101821.94;1736843;82;21179;-88
2020/12/19 00:36:36;;;;;;;62.25;29.45;;;;;;;0.84;84.33;101818.52;1733808;81;21213;-88
2020/12/19 00:39:06;;;;;;;62.33;29.42;;;;;;;0.81;84.33;101812.02;1730828;82;21214;-88
2020/12/19 00:41:32;;;;;;;60.55;29.15;;;;;;;0.80;84.28;101815.78;1733436;82;21166;-88
2020/12/19 00:43:58;;;;;;;57.17;30.43;;;;;;;0.74;84.27;101810.02;1741754;81;21185;-88
2020/12/19 00:46:25;;;;;;;59.60;29.65;;;;;;;0.71;84.27;101808.61;1730014;82;21170;-88
2020/12/19 00:48:51;;;;;;;69.75;30.77;;;;;;;0.69;84.31;101814.04;1740165;82;21209;-88
2020/12/19 00:51:21;;;;;;;58.52;28.55;;;;;;;0.66;84.32;101804.59;1744796;82;21183;-88
2020/12/19 00:53:49;;;;;;;57.55;29.18;;;;;;;0.63;84.29;101808.28;1744903;81;21325;-88
2020/12/19 00:56:25;;;;;;;66.95;29.95;;;;;;;0.59;84.26;101806.41;1715859;82;21206;-88
2020/12/19 00:58:53;;;;;;;65.03;29.87;;;;;;;0.56;84.27;101805.00;1723274;82;21245;-88
2020/12/19 01:01:22;;;;;;;60.08;29.75;;;;;;;0.53;84.30;101812.50;1744795;82;21190;-88
2020/12/19 01:03:49;;;;;;;64.20;30.68;;;;;;;0.50;84.23;101812.80;1745435;81;21198;-88
2020/12/19 01:06:18;;;;;;;69.20;30.08;;;;;;;0.46;84.28;101815.61;1736310;82;22108;-88
2020/12/19 01:08:51;;;;;;;63.35;30.00;;;;;;;0.43;84.30;101812.06;1725929;81;21222;-88
2020/12/19 01:11:20;;;;;;;61.10;29.65;;;;;;;0.39;84.30;101815.27;1731886;82;21199;-88
2020/12/19 01:13:47;;;;;;;66.42;30.02;;;;;;;0.37;84.38;101816.87;1712983;82;21206;-88
2020/12/19 01:16:20;;;;;;;69.03;31.57;;;;;;;0.32;84.37;101815.40;1724682;82;21344;-88
2020/12/19 01:18:49;;;;;;;68.87;31.35;;;;;;;0.32;84.54;101813.73;1710630;82;22140;-88
2020/12/19 01:21:22;;;;;;;71.75;31.73;;;;;;;0.35;84.55;101812.99;1720721;82;21542;-88
2020/12/19 01:23:50;;;;;;;65.22;29.57;;;;;;;0.36;84.60;101813.86;1711709;82;21446;-88
2020/12/19 01:26:17;;;;;;;71.80;31.15;;;;;;;0.35;84.53;101810.45;1718957;82;21222;-88
2020/12/19 01:28:45;;;;;;;61.95;31.35;;;;;;;0.33;84.51;101806.56;1726991;82;21198;-88
2020/12/19 01:31:14;;;;;;;66.70;30.37;;;;;;;0.35;84.47;101814.66;1731857;82;21226;-88
2020/12/19 01:33:41;;;;;;;61.75;29.95;;;;;;;0.32;84.49;101809.91;1721589;82;21183;-88
2020/12/19 01:36:12;;;;;;;69.03;31.20;;;;;;;0.30;84.47;101808.97;1721684;82;21167;-88
2020/12/19 01:38:39;;;;;;;57.00;29.70;;;;;;;0.29;84.49;101805.95;1713364;81;21415;-88
2020/12/19 01:41:06;;;;;;;68.67;29.80;;;;;;;0.29;84.50;101806.36;1736835;82;21175;-88
2020/12/19 01:43:48;;;;;;;62.40;30.92;;;;;;;0.28;84.50;101803.34;1721236;81;21234;-88
2020/12/19 01:46:48;;;;;;;63.50;30.30;;;;;;;0.27;84.46;101808.84;1726793;82;21182;-88
2020/12/19 01:49:15;;;;;;;67.08;30.35;;;;;;;0.26;84.50;101808.77;1737273;82;21194;-88
2020/12/19 01:51:42;;;;;;;61.73;29.92;;;;;;;0.25;84.46;101807.02;1721643;82;21154;-88
2020/12/19 01:54:08;;;;;;;65.50;30.72;;;;;;;0.22;84.45;101807.75;1727714;82;21190;-87
2020/12/19 01:56:48;;;;;;;65.90;29.45;;;;;;;0.20;84.43;101805.55;1726010;82;25322;-87
2020/12/19 01:59:15;;;;;;;62.38;29.23;;;;;;;0.18;84.40;101810.09;1724576;81;22427;-88
2020/12/19 02:01:46;;;;;;;62.90;29.12;;;;;;;0.15;84.41;101817.58;1733812;82;21131;-88
2020/12/19 02:04:13;;;;;;;58.20;29.05;;;;;;;0.12;84.39;101808.54;1715589;82;21245;-87
2020/12/19 02:06:41;;;;;;;;;;;;;;;0.11;84.41;101810.61;1735809;82;21615;-88
2020/12/19 02:09:08;;;;;;;63.50;28.92;;;;;;;0.10;84.40;101806.33;1716771;81;20579;-87
2020/12/19 02:11:34;;;;;;;;;;;;;;;0.05;84.33;101807.39;1732548;82;21199;-87
2020/12/19 02:14:00;;;;;;;;;;;;;;;0.02;84.37;101805.11;1722167;82;20223;-88
2020/12/19 02:16:26;;;;;;;67.80;28.77;;;;;;;-0.01;84.39;101809.28;1734310;82;20808;-88
2020/12/19 02:18:52;;;;;;;59.40;30.17;;;;;;;-0.05;84.40;101809.95;1723992;82;21206;-88
2020/12/19 02:21:19;;;;;;;69.20;30.62;;;;;;;-0.09;84.47;101805.52;1717966;82;22180;-88
2020/12/19 02:23:45;;;;;;;73.20;29.85;;;;;;;-0.10;84.51;101797.42;1719054;81;21171;-88
2020/12/19 02:26:11;;;;;;;72.92;32.58;;;;;;;-0.12;84.56;101795.20;1719231;82;21154;-88
2020/12/19 02:28:38;;;;;;;64.32;30.45;;;;;;;-0.12;84.62;101791.39;1732382;82;21202;-88
2020/12/19 02:31:04;;;;;;;66.33;32.60;;;;;;;-0.11;84.62;101789.33;1730911;82;21171;-88
2020/12/19 02:33:30;;;;;;;72.05;32.73;;;;;;;-0.10;84.62;101784.71;1739114;81;21641;-88
2020/12/19 02:35:57;;;;;;;71.05;34.27;;;;;;;-0.09;84.61;101782.64;1736361;82;21406;-88
2020/12/19 02:38:23;;;;;;;72.60;33.45;;;;;;;-0.09;84.58;101785.58;1737375;82;21174;-88
2020/12/19 02:40:49;;;;;;;70.25;32.53;;;;;;;-0.08;84.65;101778.03;1718525;81;21672;-88
2020/12/19 02:43:16;;;;;;;64.60;33.88;;;;;;;-0.06;84.66;101776.83;1736921;82;21211;-88
2020/12/19 02:45:42;;;;;;;69.65;33.33;;;;;;;-0.03;84.61;101776.97;1712689;82;21620;-87
2020/12/19 02:48:08;;;;;;;70.50;33.00;;;;;;;-0.05;84.58;101774.36;1725425;82;21199;-88
2020/12/19 02:50:35;;;;;;;66.10;33.23;;;;;;;-0.04;84.55;101773.55;1730526;81;21151;-88
2020/12/19 02:53:01;;;;;;;72.00;33.10;;;;;;;-0.15;84.44;101755.67;1728007;81;21637;-88
2020/12/19 02:55:27;;;;;;;74.97;33.95;;;;;;;-0.15;84.44;101755.67;1732494;82;21190;-88
2020/12/19 02:57:53;;;;;;;68.42;32.10;;;;;;;-0.04;84.63;101776.09;1733286;82;21206;-88
2020/12/19 03:00:20;;;;;;;68.85;33.23;;;;;;;-0.04;84.57;101770.14;1715289;82;21691;-88
2020/12/19 03:02:46;;;;;;;65.55;32.42;;;;;;;-0.07;84.51;101777.22;1726879;81;21196;-88
2020/12/19 03:05:12;;;;;;;71.42;33.75;;;;;;;-0.09;84.50;101772.87;1719238;82;21210;-88
2020/12/19 03:07:39;;;;;;;83.92;35.50;;;;;;;-0.12;84.60;101772.33;1736679;82;21616;-88
2020/12/19 03:10:05;;;;;;;68.95;33.78;;;;;;;-0.11;84.61;101763.91;1727598;81;21178;-88
2020/12/19 03:12:31;;;;;;;71.93;34.57;;;;;;;-0.11;84.56;101751.19;1611850;81;9999792;-88
2020/12/19 03:14:58;;;;;;;69.17;33.73;;;;;;;-0.13;84.44;101757.02;1725507;82;21650;-87
2020/12/19 03:17:24;;;;;;;71.25;33.98;;;;;;;-0.19;84.45;101748.70;1722644;82;21017;-88
2020/12/19 03:19:50;;;;;;;71.33;34.65;;;;;;;-0.19;84.54;101749.11;1736985;82;21331;-87
2020/12/19 03:22:16;;;;;;;69.90;33.58;;;;;;;-0.20;84.54;101742.28;1725122;82;21179;-87
2020/12/19 03:27:21;;;;;;;76.97;38.67;;;;;;;-0.20;84.63;101727.90;1817400;76;22524;-87
2020/12/19 03:29:47;;;;;;;81.10;36.58;;;;;;;-0.25;84.66;101721.73;1825044;76;21581;-87
2020/12/19 03:32:14;;;;;;;88.07;36.65;;;;;;;-0.25;84.75;101715.38;1828118;77;21340;-87
2020/12/19 03:34:41;;;;;;;80.22;34.78;;;;;;;-0.22;84.81;101715.52;1833701;77;21219;-87
2020/12/19 03:37:07;;;;;;;80.40;35.73;;;;;;;-0.20;84.89;101710.11;1831104;77;20996;-87
2020/12/19 03:39:33;;;;;;;86.42;37.55;;;;;;;-0.16;84.93;101711.98;1842486;77;21483;-87
2020/12/19 03:41:59;;;;;;;84.13;36.73;;;;;;;-0.13;84.94;101706.17;1826780;77;21162;-87
2020/12/19 03:44:26;;;;;;;84.28;35.90;;;;;;;-0.10;85.00;101708.85;1838063;77;22096;-88
2020/12/19 03:46:52;;;;;;;81.47;36.28;;;;;;;-0.06;85.05;101715.81;1837968;77;21012;-87
2020/12/19 03:49:18;;;;;;;83.05;36.08;;;;;;;-0.02;85.03;101717.29;1838997;75;21602;-88
2020/12/19 03:51:44;;;;;;;62.90;27.82;;;;;;;-0.01;85.00;101719.03;1844561;76;21186;-88
2020/12/19 03:54:11;;;;;;;73.97;34.88;;;;;;;-0.01;85.00;101727.92;1832286;77;21162;-88
2020/12/19 03:56:37;;;;;;;74.12;34.83;;;;;;;0.02;85.05;101730.11;1822112;77;21181;-88
2020/12/19 03:59:03;;;;;;;74.22;33.50;;;;;;;0.04;85.10;101724.69;1838199;77;21154;-88
2020/12/19 04:01:29;;;;;;;77.65;34.65;;;;;;;0.07;85.10;101728.23;1831115;77;21153;-88
2020/12/19 04:03:56;;;;;;;77.80;33.55;;;;;;;0.11;85.09;101720.34;1834529;77;21583;-88
2020/12/19 04:06:22;;;;;;;78.20;36.55;;;;;;;0.14;85.08;101725.16;1838398;76;21135;-88
2020/12/19 04:08:49;;;;;;;86.10;36.13;;;;;;;0.15;85.07;101728.17;1825238;77;21513;-88
2020/12/19 04:11:15;;;;;;;86.65;33.92;;;;;;;0.16;85.03;101719.73;1840945;77;21146;-88
2020/12/19 04:13:41;;;;;;;69.47;32.28;;;;;;;0.17;85.04;101718.06;1836128;77;21161;-88
2020/12/19 04:16:08;;;;;;;72.37;32.48;;;;;;;0.16;85.05;101712.52;1831993;77;22415;-88
2020/12/19 04:18:34;;;;;;;79.07;35.70;;;;;;;0.17;85.03;101708.77;1839257;77;21150;-88
2020/12/19 04:21:00;;;;;;;52.40;24.90;;;;;;;0.18;85.05;101702.00;1842500;76;21174;-88
2020/12/19 04:23:27;;;;;;;62.90;27.20;;;;;;;0.19;85.09;101702.47;1844569;77;21177;-88
2020/12/19 04:25:53;;;;;;;75.62;32.28;;;;;;;0.20;85.12;101696.19;1821283;77;21233;-88
2020/12/19 04:28:19;;;;;;;76.37;34.45;;;;;;;0.21;85.07;101696.66;1839534;77;21162;-88
2020/12/19 04:30:45;;;;;;;80.85;33.30;;;;;;;0.23;85.11;101694.17;1823465;77;21147;-88
2020/12/19 04:33:12;;;;;;;72.90;31.50;;;;;;;0.24;85.07;101697.19;1828692;77;21544;-88
2020/12/19 04:35:38;;;;;;;72.90;30.35;;;;;;;0.23;85.08;101695.05;1835887;77;21139;-89
2020/12/19 04:38:04;;;;;;;60.73;29.37;;;;;;;0.22;85.04;101694.58;1822626;77;21465;-88
2020/12/19 04:40:30;;;;;;;59.40;28.65;;;;;;;0.20;85.03;101700.40;1828499;77;21181;-88
2020/12/19 04:42:58;;;;;;;59.27;27.42;;;;;;;0.20;85.06;101699.13;1841102;77;21154;-88
2020/12/19 04:45:24;;;;;;;62.38;28.92;;;;;;;0.20;85.12;101699.13;1838911;77;21226;-88
2020/12/19 04:47:51;;;;;;;61.65;31.80;;;;;;;0.18;85.07;101697.79;1812706;77;21166;-88
2020/12/19 04:50:18;;;;;;;;;;;;;;;0.18;85.10;101700.33;1812006;77;21354;-88
2020/12/19 04:52:45;;;;;;;56.73;25.37;;;;;;;0.19;85.07;101702.47;1816737;77;20257;-88
2020/12/19 04:55:11;;;;;;;57.58;27.80;;;;;;;0.15;85.08;101710.77;1836531;77;21587;-88
2020/12/19 04:57:37;;;;;;;52.53;25.52;;;;;;;0.12;85.08;101708.09;1811341;77;21165;-88
2020/12/19 05:00:06;;;;;;;59.65;27.10;;;;;;;0.12;85.09;101706.42;1839489;77;26577;-88
2020/12/19 05:02:32;;;;;;;52.40;26.75;;;;;;;0.10;85.10;101709.70;1830941;77;21171;-88
2020/12/19 05:05:03;;;;;;;48.98;26.30;;;;;;;0.08;85.08;101710.91;1840528;77;21182;-88
2020/12/19 05:07:30;;;;;;;55.12;27.02;;;;;;;0.06;85.10;101711.23;1831981;77;22324;-88
2020/12/19 05:09:56;;;;;;;58.33;28.47;;;;;;;0.04;85.09;101706.89;1801423;77;21649;-88
2020/12/19 05:12:25;;;;;;;55.90;26.75;;;;;;;0.03;85.11;101711.50;1821628;77;21627;-88
2020/12/19 05:14:51;;;;;;;57.58;27.40;;;;;;;0.02;85.15;101714.45;1829339;77;21213;-88
2020/12/19 05:17:18;;;;;;;62.25;29.30;;;;;;;0.03;85.18;101721.67;1820683;77;21606;-89
2020/12/19 05:19:44;;;;;;;59.27;27.30;;;;;;;0.04;85.20;101719.60;1814225;77;21575;-88
2020/12/19 05:22:17;;;;;;;58.52;29.12;;;;;;;0.03;85.19;101721.67;1830419;77;21220;-88
2020/12/19 05:24:44;;;;;;;57.67;26.90;;;;;;;0.02;85.19;101724.62;1819287;77;21166;-88
2020/12/19 05:27:10;;;;;;;63.42;29.23;;;;;;;0.02;85.24;101722.08;1812275;77;21144;-88
2020/12/19 05:29:37;;;;;;;55.50;28.15;;;;;;;0.03;85.25;101720.41;1793084;78;21413;-88
2020/12/19 05:32:04;;;;;;;53.78;25.97;;;;;;;0.03;85.26;101721.67;1813319;77;21162;-88
2020/12/19 05:34:30;;;;;;;59.00;28.80;;;;;;;0.04;85.30;101725.55;1820814;77;22230;-88
2020/12/19 05:36:57;;;;;;;52.88;26.02;;;;;;;0.05;85.28;101727.30;1803147;78;28902;-88
2020/12/19 05:39:24;;;;;;;55.35;27.10;;;;;;;0.04;85.25;101728.09;1812265;77;21190;-88
2020/12/19 05:41:51;;;;;;;53.10;25.70;;;;;;;0.04;85.28;101730.64;1813238;77;21237;-88
2020/12/19 05:44:22;;;;;;;63.17;28.57;;;;;;;0.07;85.34;101731.18;1790959;78;21166;-88
2020/12/19 05:46:49;;;;;;;55.03;28.02;;;;;;;0.10;85.40;101730.05;1801433;77;21214;-88
2020/12/19 05:49:16;;;;;;;55.55;25.88;;;;;;;0.11;85.42;101727.56;1805779;78;21171;-88
2020/12/19 05:51:44;;;;;;;58.40;26.52;;;;;;;0.15;85.41;101733.66;1819521;77;21159;-88
2020/12/19 05:54:14;;;;;;;55.20;26.27;;;;;;;0.16;85.35;101727.77;1810180;77;21167;-88
2020/12/19 05:56:43;;;;;;;59.03;27.10;;;;;;;0.18;85.38;101731.25;1807129;77;21178;-88
2020/12/19 05:59:14;;;;;;;53.63;25.68;;;;;;;0.20;85.42;101731.79;1811902;77;21212;-88
2020/12/19 06:01:44;;;;;;;49.18;24.75;;;;;;;0.23;85.39;101736.14;1801959;77;21990;-88
2020/12/19 06:04:12;;;;;;;51.33;25.57;;;;;;;0.22;85.36;101732.72;1810716;79;22296;-88
2020/12/19 06:06:41;;;;;;;51.95;25.77;;;;;;;0.22;85.39;101736.55;1793499;77;21147;-88
2020/12/19 06:09:12;;;;;;;52.30;23.38;;;;;;;0.23;85.41;101737.02;1810336;77;21428;-88
2020/12/19 06:11:47;;;;;;;46.80;23.40;;;;;;;0.24;85.40;101736.61;1836949;77;21198;-88
2020/12/19 06:14:18;;;;;;;38.55;21.50;;;;;;;0.26;85.42;101733.73;1820259;77;21226;-88
2020/12/19 06:16:47;;;;;;;49.70;24.52;;;;;;;0.27;85.43;101737.61;1807167;78;21583;-88
2020/12/19 06:19:23;;;;;;;42.62;22.35;;;;;;;0.29;85.43;101739.82;1806013;79;21178;-88
2020/12/19 06:21:52;;;;;;;46.48;23.05;;;;;;;0.29;85.43;101734.73;1811385;79;21174;-88
2020/12/19 06:24:45;;;;;;;42.25;21.45;;;;;;;0.29;85.40;101739.82;1807789;78;22027;-88
2020/12/19 06:27:26;;;;;;;45.30;22.10;;;;;;;0.29;85.43;101733.46;1815747;77;21604;-88
2020/12/19 06:29:53;;;;;;;46.92;22.95;;;;;;;0.28;85.43;101730.45;1820595;77;21158;-88
2020/12/19 06:32:22;;;;;;;43.80;22.40;;;;;;;0.31;85.53;101730.98;1827020;77;21155;-88
2020/12/19 06:35:11;;;;;;;42.45;22.17;;;;;;;0.31;85.44;101738.62;1824927;77;21181;-88
2020/12/19 06:37:41;;;;;;;41.35;20.57;;;;;;;0.31;85.46;101745.84;1809163;77;21230;-88
2020/12/19 06:40:17;;;;;;;45.78;19.87;;;;;;;0.31;85.46;101746.25;1812376;77;21654;-88
2020/12/19 06:42:46;;;;;;;37.08;18.65;;;;;;;0.28;85.42;101739.75;1818218;77;21158;-88
2020/12/19 06:45:30;;;;;;;45.70;20.97;;;;;;;0.26;85.39;101745.17;1833650;77;21197;-88
2020/12/19 06:47:58;;;;;;;41.85;18.85;;;;;;;0.23;85.41;101749.73;1835156;77;21726;-88
2020/12/19 06:50:26;;;;;;;40.70;20.43;;;;;;;0.19;85.42;101752.94;1824744;77;22370;-87
2020/12/19 06:53:00;;;;;;;39.03;18.67;;;;;;;0.18;85.42;101756.28;1802495;77;21167;-87
2020/12/19 06:55:29;;;;;;;43.20;19.80;;;;;;;0.16;85.41;101760.43;1830701;77;21171;-88
2020/12/19 06:57:58;;;;;;;47.65;23.10;;;;;;;0.14;85.46;101759.49;1831990;77;21162;-88
2020/12/19 07:00:31;;;;;;;42.08;20.55;;;;;;;0.15;85.57;101762.50;1829283;77;21174;-87
2020/12/19 07:02:59;;;;;;;64.80;32.50;;;;;;;0.18;85.59;101763.05;1839421;76;22495;-88
2020/12/19 07:05:29;;;;;;;48.45;23.35;;;;;;;0.17;85.54;101769.80;1824346;77;21438;-88
2020/12/19 07:08:25;;;;;;;44.33;22.48;;;;;;;0.16;85.52;101765.92;1823819;77;21219;-88
2020/12/19 07:10:51;;;;;;;56.15;24.40;;;;;;;0.16;85.59;101765.52;1828632;77;21165;-88
2020/12/19 07:13:18;;;;;;;35.55;20.02;;;;;;;0.18;85.62;101766.45;1824066;77;21551;-88
2020/12/19 07:15:50;;;;;;;36.55;18.82;;;;;;;0.20;85.61;101765.25;1814233;77;21141;-88
2020/12/19 07:18:32;;;;;;;48.33;20.48;;;;;;;0.21;85.65;101765.72;1832935;77;21229;-88
2020/12/19 07:21:04;;;;;;;44.50;20.62;;;;;;;0.23;85.66;101762.84;1837458;77;21481;-88
2020/12/19 07:23:33;;;;;;;44.95;20.48;;;;;;;0.25;85.65;101757.42;1834978;77;21172;-88
2020/12/19 07:26:00;;;;;;;45.65;21.00;;;;;;;0.26;85.65;101760.44;1825253;77;21182;-89
2020/12/19 07:28:28;;;;;;;55.80;21.02;;;;;;;0.25;85.62;101762.11;1838581;77;21213;-88
2020/12/19 07:30:54;;;;;;;36.33;18.50;;;;;;;0.26;85.65;101761.31;1835975;77;21182;-89
2020/12/19 07:33:20;;;;;;;45.48;19.80;;;;;;;0.26;85.63;101762.98;1833742;77;21246;-88
2020/12/19 07:35:50;;;;;;;49.75;20.90;;;;;;;0.25;85.67;101766.33;1825756;77;21623;-88
2020/12/19 07:38:16;;;;;;;43.63;19.82;;;;;;;0.27;85.69;101762.18;1806660;77;21195;-89
2020/12/19 07:40:42;;;;;;;37.55;19.20;;;;;;;0.28;85.72;101762.64;1810578;77;21815;-88
2020/12/19 07:43:11;;;;;;;43.23;18.52;;;;;;;0.28;85.74;101766.06;1826722;77;21154;-91
2020/12/19 07:45:39;;;;;;;38.65;18.02;;;;;;;0.30;85.75;101764.86;1803181;77;21182;-88
2020/12/19 07:48:06;;;;;;;42.45;19.07;;;;;;;0.29;85.74;101761.44;1828512;77;21133;-89
2020/12/19 07:50:34;;;;;;;40.60;21.23;;;;;;;0.31;85.82;101761.51;1836345;77;21166;-89
2020/12/19 07:53:06;;;;;;;49.60;21.35;;;;;;;0.35;85.85;101761.24;1830283;77;21186;-88
2020/12/19 07:55:34;;;;;;;45.63;20.85;;;;;;;0.36;85.83;101762.58;1831146;77;21151;-89
2020/12/19 07:58:02;;;;;;;41.40;20.37;;;;;;;0.38;85.88;101760.98;1829038;77;21143;-89
2020/12/19 08:00:30;;;;;;;38.48;21.82;;;;;;;0.42;85.86;101753.95;1835510;77;21150;-89
2020/12/19 08:02:56;;;;;;;39.42;19.50;;;;;;;0.46;85.90;101755.81;1829145;77;21158;-89
2020/12/19 08:05:22;;;;;;;37.60;20.60;;;;;;;0.50;85.89;101761.91;1829392;77;22388;-88
2020/12/19 08:07:54;;;;;;;40.38;18.80;;;;;;;0.47;85.76;101760.10;1828026;77;21619;-89
2020/12/19 08:10:21;;;;;;;39.40;21.07;;;;;;;0.46;85.83;101767.67;1827618;77;21540;-87
2020/12/19 08:12:48;;;;;;;35.83;19.60;;;;;;;0.47;85.90;101773.23;1832815;77;21600;-88
2020/12/19 08:15:20;;;;;;;40.33;20.23;;;;;;;0.47;85.89;101767.73;1830295;77;21695;-88
2020/12/19 08:17:50;;;;;;;36.90;19.62;;;;;;;0.49;85.94;101775.03;1833849;77;21222;-88
2020/12/19 08:20:36;;;;;;;37.23;20.17;;;;;;;0.52;85.92;101767.94;1828722;77;21443;-88
2020/12/19 08:23:06;;;;;;;42.25;18.50;;;;;;;0.51;85.90;101773.42;1834508;77;21671;-88
2020/12/19 08:25:35;;;;;;;40.78;20.60;;;;;;;0.56;85.96;101771.05;1834425;77;21210;-87
2020/12/19 08:28:01;;;;;;;37.63;20.45;;;;;;;0.57;85.98;101777.48;1827231;77;21154;-87
2020/12/19 08:30:30;;;;;;;37.40;19.12;;;;;;;0.60;85.96;101776.34;1836286;77;21314;-87
2020/12/19 08:33:05;;;;;;;36.65;18.90;;;;;;;0.62;85.94;101772.18;1825089;77;21167;-87
2020/12/19 08:35:36;;;;;;;34.33;19.37;;;;;;;0.61;85.87;101774.27;1816609;77;21532;-87
2020/12/19 08:38:10;;;;;;;35.48;18.80;;;;;;;0.60;85.85;101773.79;1829781;77;21123;-86
2020/12/19 08:40:39;;;;;;;41.35;19.60;;;;;;;0.58;85.86;101774.53;1837504;77;21163;-83
2020/12/19 08:43:08;;;;;;;39.15;19.80;;;;;;;0.59;85.94;101776.27;1817291;77;21203;-86
2020/12/19 08:45:37;;;;;;;35.88;18.55;;;;;;;0.61;86.01;101776.80;1817602;77;21457;-71
2020/12/19 08:48:21;;;;;;;46.08;22.60;;;;;;;0.65;86.08;101767.62;1818550;77;21153;-71
2020/12/19 08:50:50;;;;;;;45.15;20.12;;;;;;;0.72;86.16;101771.30;1818978;77;21116;-71
2020/12/19 08:53:27;;;;;;;38.48;20.20;;;;;;;0.77;86.06;101767.28;1818502;77;21094;-70
2020/12/19 08:55:55;;;;;;;34.43;18.00;;;;;;;0.80;86.02;101771.23;1825376;77;21184;-70
2020/12/19 08:58:30;;;;;;;40.00;20.05;;;;;;;0.81;86.02;101768.74;1824640;77;21106;-71
2020/12/19 09:00:59;;;;;;;31.52;18.02;;;;;;;0.84;86.07;101767.59;1826374;77;21643;-76
2020/12/19 09:03:31;;;;;;;40.33;21.70;;;;;;;0.91;86.09;101773.41;1821832;77;21197;-72
2020/12/19 09:06:01;;;;;;;42.83;20.90;;;;;;;0.93;86.04;101767.11;1830896;77;21175;-71
2020/12/19 09:09:00;;;;;;;36.53;20.17;;;;;;;0.99;86.08;101774.61;1822893;77;21889;-72
2020/12/19 09:11:29;;;;;;;43.33;18.98;;;;;;;1.03;86.05;101776.88;1725015;81;21206;-72
2020/12/19 09:14:06;;;;;;;42.50;20.48;;;;;;;1.07;86.04;101773.61;1719198;81;21225;-70
2020/12/19 09:16:36;;;;;;;41.60;20.37;;;;;;;1.10;86.03;101777.56;1715006;81;22276;-70
2020/12/19 09:19:15;;;;;;;39.35;19.50;;;;;;;1.12;86.04;101772.13;1695057;81;21193;-70
2020/12/19 09:21:43;;;;;;;44.45;20.37;;;;;;;1.16;86.07;101766.75;1710237;81;21267;-70
2020/12/19 09:24:10;;;;;;;33.67;18.48;;;;;;;1.19;86.03;101761.78;1713417;81;21214;-70
2020/12/19 09:26:36;;;;;;;38.25;19.32;;;;;;;1.20;86.00;101760.57;1720895;81;21190;-70
2020/12/19 09:29:02;;;;;;;33.15;17.75;;;;;;;1.21;85.94;101763.98;1709264;81;21236;-70
2020/12/19 09:31:29;;;;;;;33.95;18.95;;;;;;;1.19;85.94;101757.56;1706259;81;21178;-70
2020/12/19 09:33:55;;;;;;;32.20;17.85;;;;;;;1.21;86.03;101760.17;1720918;81;21226;-70
2020/12/19 09:36:21;;;;;;;31.73;17.95;;;;;;;1.25;86.08;101755.66;1738629;81;21228;-70
2020/12/19 09:38:48;;;;;;;35.40;19.32;;;;;;;1.28;86.07;101755.37;1723288;81;21197;-70
2020/12/19 09:41:14;;;;;;;33.05;18.00;;;;;;;1.27;85.99;101755.31;1716532;81;21233;-70
2020/12/19 09:43:40;;;;;;;30.90;17.92;;;;;;;1.30;86.08;101751.22;1729035;80;21143;-70
2020/12/19 09:46:07;;;;;;;37.00;20.27;;;;;;;1.37;86.14;101751.05;1740654;81;21178;-70
2020/12/19 09:48:33;;;;;;;35.83;18.12;;;;;;;1.39;86.04;101745.61;1739907;80;21196;-70
2020/12/19 09:50:59;;;;;;;36.25;20.23;;;;;;;1.39;85.99;101744.34;1733674;80;21223;-70
2020/12/19 09:53:25;;;;;;;38.83;20.02;;;;;;;1.40;86.05;101748.63;1723929;80;21258;-70
2020/12/19 09:55:52;;;;;;;44.67;21.27;;;;;;;1.41;86.04;101744.00;1731971;80;21165;-70
2020/12/19 09:58:18;;;;;;;27.32;15.88;;;;;;;1.41;86.01;101734.20;1737556;81;21643;-70
2020/12/19 10:00:44;;;;;;;34.27;18.62;;;;;;;1.40;86.02;101732.06;1728463;81;21193;-70
2020/12/19 10:03:10;;;;;;;34.58;19.27;;;;;;;1.40;86.04;101737.16;1734890;81;21187;-70
2020/12/19 10:05:37;;;;;;;35.03;18.15;;;;;;;1.42;86.10;101733.40;1729440;80;21194;-70
2020/12/19 10:08:04;;;;;;;39.00;20.95;;;;;;;1.47;86.24;101731.49;1736393;81;22064;-70
2020/12/19 10:10:30;;;;;;;38.78;19.10;;;;;;;1.53;86.23;101733.41;1728348;81;22266;-70
2020/12/19 10:12:56;;;;;;;33.63;19.25;;;;;;;1.55;86.22;101733.94;1718653;83;21198;-70
2020/12/19 10:15:22;;;;;;;;;;;;;;;1.59;86.10;101739.98;1598955;82;10000937;-70
2020/12/19 10:17:49;;;;;;;27.63;16.77;;;;;;;1.59;86.17;101737.03;1718294;83;21277;-70
2020/12/19 10:20:15;;;;;;;32.58;17.05;;;;;;;1.61;86.22;101740.91;1711211;83;21199;-70
2020/12/19 10:22:41;;;;;;;35.98;18.90;;;;;;;1.67;86.29;101732.23;1717591;83;21368;-70
2020/12/19 10:25:08;;;;;;;36.95;19.15;;;;;;;1.70;86.25;101733.62;1724307;81;21224;-70
2020/12/19 10:27:34;;;;;;;35.48;18.92;;;;;;;1.77;86.33;101730.89;1716452;81;21218;-70
2020/12/19 10:30:00;;;;;;;36.03;18.87;;;;;;;1.84;86.30;101725.22;1718976;81;21250;-70
2020/12/19 10:32:26;;;;;;;36.15;18.12;;;;;;;1.88;86.24;101720.28;1721060;82;21200;-70
2020/12/19 10:34:53;;;;;;;36.75;19.50;;;;;;;1.89;86.16;101722.43;1720109;82;21247;-70
2020/12/19 10:37:19;;;;;;;37.48;18.77;;;;;;;1.94;86.23;101723.47;1719733;82;21258;-70
2020/12/19 10:39:45;;;;;;;40.43;19.70;;;;;;;1.99;86.25;101725.37;1709602;83;21238;-71
2020/12/19 10:42:12;;;;;;;50.70;24.15;;;;;;;2.01;86.19;101724.16;1718499;83;21344;-71
2020/12/19 10:44:38;;;;;;;35.25;18.95;;;;;;;2.05;86.21;101719.62;1715445;83;21185;-76
2020/12/19 10:47:04;;;;;;;40.52;21.87;;;;;;;2.08;86.19;101719.70;1712901;82;21548;-71
2020/12/19 10:49:31;;;;;;;36.80;19.85;;;;;;;2.10;86.20;101718.48;1720571;81;21200;-71
2020/12/19 10:51:57;;;;;;;37.42;20.23;;;;;;;2.12;86.19;101716.86;1679610;85;21194;-71
2020/12/19 10:54:23;;;;;;;36.53;19.70;;;;;;;2.15;86.24;101714.02;1721283;83;21232;-71
2020/12/19 10:56:53;;;;;;;42.78;20.82;;;;;;;2.18;86.15;101711.97;1709125;83;21207;-71
2020/12/19 10:59:20;;;;;;;41.53;19.55;;;;;;;2.15;86.10;101710.19;1718662;83;21187;-71
2020/12/19 11:01:46;;;;;;;42.45;21.80;;;;;;;2.12;86.10;101710.48;1701059;83;21512;-70
2020/12/19 11:04:13;;;;;;;37.33;19.05;;;;;;;2.10;86.07;101707.87;1719077;83;21204;-70
2020/12/19 11:06:39;;;;;;;42.93;21.68;;;;;;;2.09;86.12;101709.96;1719788;83;21344;-70
2020/12/19 11:09:05;;;;;;;36.33;20.23;;;;;;;2.10;86.18;101707.00;1720711;81;21179;-70
2020/12/19 11:11:31;;;;;;;37.05;20.90;;;;;;;2.10;86.20;101705.33;1705615;82;21214;-70
2020/12/19 11:13:58;;;;;;;37.58;20.00;;;;;;;2.13;86.27;101705.43;1706612;82;21196;-70
2020/12/19 11:16:28;;;;;;;37.93;19.98;;;;;;;2.15;86.27;101705.08;1708669;82;21206;-70
2020/12/19 11:18:56;;;;;;;38.50;19.57;;;;;;;2.14;86.22;101704.62;1707875;82;21556;-70
2020/12/19 11:21:22;;;;;;;36.15;19.17;;;;;;;2.16;86.21;101705.54;1709650;82;21127;-70
2020/12/19 11:23:49;;;;;;;36.28;18.62;;;;;;;2.15;86.25;101706.36;1707611;82;21548;-70